Time;durP1;ratioP1;P1;durP2;ratioP2;P2;SDS_P1;SDS_P2;PMS_P1;PMS_P2;Temp;Humidity;BMP_temperature;BMP_pressure;BME280_temperature;BME280_humidity;BME280_pressure;Samples;Min_cycle;Max_cycle;Signal;HPM_P1;HPM_P2
2021/12/23 04:41:16;;;;;;;54.97;29.30;;;;;;;-6.31;95.68;101416.47;6631355;26;20075;-78
2021/12/23 04:44:19;;;;;;;57.80;29.77;;;;;;;-6.40;95.63;101414.97;6654482;26;174954;-79
2021/12/23 04:47:22;;;;;;;61.20;32.50;;;;;;;-6.33;95.41;101425.25;6665712;26;34216;-79
2021/12/23 04:50:25;;;;;;;64.15;33.28;;;;;;;-6.44;95.49;101421.19;6662446;26;34820;-79
2021/12/23 04:53:29;;;;;;;66.57;32.78;;;;;;;-6.49;96.01;101420.47;6665104;26;33932;-78
2021/12/23 04:56:32;;;;;;;63.00;33.17;;;;;;;-6.52;96.89;101411.81;6664554;26;33589;-79
2021/12/23 04:59:35;;;;;;;68.50;33.08;;;;;;;-6.54;96.88;101414.50;6662505;26;34813;-79
2021/12/23 05:02:38;;;;;;;80.40;38.38;;;;;;;-6.54;96.56;101417.13;6660302;26;33571;-79
2021/12/23 05:05:41;;;;;;;73.75;36.67;;;;;;;-6.62;96.34;101411.22;6660669;26;33871;-79
2021/12/23 05:08:44;;;;;;;73.43;35.00;;;;;;;-6.65;97.19;101409.53;6660418;26;34669;-79
2021/12/23 05:11:47;;;;;;;67.12;34.22;;;;;;;-6.62;97.42;101419.94;6661077;26;33997;-80
2021/12/23 05:14:50;;;;;;;64.45;33.53;;;;;;;-6.57;97.87;101417.19;6660792;26;33883;-79
2021/12/23 05:17:53;;;;;;;69.07;35.85;;;;;;;-6.53;97.43;101415.34;6661395;26;33857;-79
2021/12/23 05:20:56;;;;;;;65.30;32.90;;;;;;;-6.45;97.82;101419.47;6660834;26;33629;-79
2021/12/23 05:23:58;;;;;;;72.47;36.45;;;;;;;-6.29;96.68;101417.25;6661335;26;33788;-80
2021/12/23 05:27:01;;;;;;;69.03;33.50;;;;;;;-6.27;96.49;101401.50;6661430;26;34058;-80
2021/12/23 05:30:09;;;;;;;66.47;33.97;;;;;;;-6.13;96.04;101395.84;6661890;26;34592;-80
2021/12/23 05:33:12;;;;;;;68.45;34.05;;;;;;;-6.06;94.83;101395.59;6661820;26;34053;-80
2021/12/23 05:36:15;;;;;;;62.80;33.35;;;;;;;-5.99;95.01;101393.66;6661899;26;34176;-80
2021/12/23 05:39:18;;;;;;;61.22;32.65;;;;;;;-5.90;95.14;101400.34;6663375;26;33842;-80
2021/12/23 05:42:21;;;;;;;58.80;31.87;;;;;;;-5.81;95.14;101400.06;6690445;26;34702;-80
2021/12/23 05:45:24;;;;;;;55.75;33.67;;;;;;;-5.74;94.55;101407.66;6692801;26;35413;-80
2021/12/23 05:48:27;;;;;;;62.10;30.88;;;;;;;-5.63;94.28;101409.13;6691247;26;34669;-80
2021/12/23 05:51:30;;;;;;;54.72;28.23;;;;;;;-5.54;93.38;101420.16;6691203;26;33949;-80
2021/12/23 05:54:32;;;;;;;62.00;29.50;;;;;;;-5.31;92.44;101406.28;6691379;26;33924;-80
2021/12/23 05:57:36;;;;;;;54.75;28.05;;;;;;;-5.26;92.78;101409.63;6691573;26;33875;-80
2021/12/23 06:00:38;;;;;;;54.42;27.83;;;;;;;-5.17;91.90;101410.22;6696382;26;34106;-80
2021/12/23 06:03:46;;;;;;;50.78;26.55;;;;;;;-5.15;91.74;101406.63;6704608;26;33515;-80
2021/12/23 06:06:48;;;;;;;56.08;29.55;;;;;;;-5.07;91.80;101409.00;6692505;26;35352;-80
2021/12/23 06:09:51;;;;;;;57.15;29.45;;;;;;;-5.05;91.67;101407.19;6690540;26;34734;-80
2021/12/23 06:12:54;;;;;;;71.28;34.28;;;;;;;-5.09;90.93;101390.69;6692887;26;33878;-80
2021/12/23 06:15:57;;;;;;;73.82;34.90;;;;;;;-5.09;91.35;101377.56;6701285;26;33959;-80
2021/12/23 06:19:00;;;;;;;81.78;39.08;;;;;;;-5.04;90.29;101393.13;6690926;26;33931;-80
2021/12/23 06:22:03;;;;;;;75.82;37.75;;;;;;;-5.13;90.24;101388.19;6690465;26;35220;-80
2021/12/23 06:25:09;;;;;;;82.82;36.58;;;;;;;-5.14;90.73;101389.97;6690033;26;34170;-80
2021/12/23 06:28:12;;;;;;;63.90;32.60;;;;;;;-5.14;91.27;101392.59;6690621;26;34014;-80
2021/12/23 06:31:15;;;;;;;64.82;32.22;;;;;;;-5.11;90.08;101389.00;6690779;26;33854;-80
2021/12/23 06:34:18;;;;;;;59.38;31.37;;;;;;;-5.09;90.60;101390.69;6691554;26;33518;-84
2021/12/23 06:37:21;;;;;;;60.12;31.45;;;;;;;-4.97;89.07;101389.41;6691234;26;34735;-84
2021/12/23 06:40:24;;;;;;;62.35;31.75;;;;;;;-4.89;88.96;101395.22;6697485;26;34636;-83
2021/12/23 06:43:27;;;;;;;57.38;31.92;;;;;;;-4.78;88.22;101390.44;6704428;26;35495;-83
2021/12/23 06:46:30;;;;;;;65.07;32.85;;;;;;;-4.78;87.66;101392.22;6707723;26;34234;-83
2021/12/23 06:49:33;;;;;;;67.15;35.17;;;;;;;-4.73;87.36;101395.53;6711599;26;34913;-81
2021/12/23 06:52:38;;;;;;;66.57;33.28;;;;;;;-4.75;88.70;101394.72;6693038;26;35286;-80
2021/12/23 06:55:41;;;;;;;65.93;31.95;;;;;;;-4.63;87.00;101394.28;6695506;26;34396;-80
2021/12/23 06:58:49;;;;;;;62.00;31.73;;;;;;;-4.50;86.67;101388.56;6691774;26;34199;-80
2021/12/23 07:01:51;;;;;;;58.97;31.30;;;;;;;-4.55;87.33;101391.38;6699519;26;34792;-80
2021/12/23 07:04:54;;;;;;;57.28;29.83;;;;;;;-4.62;87.72;101398.63;6694925;26;35032;-80
2021/12/23 07:08:05;;;;;;;58.42;30.12;;;;;;;-4.60;87.53;101393.31;6690633;26;33744;-80
2021/12/23 07:11:10;;;;;;;59.45;30.23;;;;;;;-4.56;88.10;101394.94;6690493;26;34576;-79
2021/12/23 07:14:12;;;;;;;59.17;28.52;;;;;;;-4.54;86.76;101384.34;6697335;26;33892;-80
2021/12/23 07:17:17;;;;;;;58.38;28.95;;;;;;;-4.48;86.67;101384.97;6700846;26;33516;-80
2021/12/23 07:20:20;;;;;;;59.28;29.87;;;;;;;-4.32;85.88;101387.91;6699394;26;33601;-80
2021/12/23 07:23:24;;;;;;;61.55;29.25;;;;;;;-4.23;85.20;101384.91;6689997;26;32582;-80
2021/12/23 07:26:26;;;;;;;59.35;30.35;;;;;;;-4.10;84.93;101378.25;6690910;26;34763;-81
2021/12/23 07:29:29;;;;;;;53.30;28.87;;;;;;;-3.95;84.55;101383.84;6691158;26;33879;-80
2021/12/23 07:32:32;;;;;;;47.22;25.98;;;;;;;-3.84;84.02;101389.53;6690470;26;34617;-80
2021/12/23 07:35:35;;;;;;;48.38;25.23;;;;;;;-3.72;82.11;101382.91;6690653;26;34438;-80
2021/12/23 07:38:38;;;;;;;51.13;26.27;;;;;;;-3.65;81.85;101376.50;6690864;26;33734;-80
2021/12/23 07:41:41;;;;;;;46.35;24.17;;;;;;;-3.51;81.43;101381.19;6690949;26;33907;-80
2021/12/23 07:45:05;;;;;;;45.45;23.80;;;;;;;-3.52;80.82;101377.69;6689767;26;34199;-80
2021/12/23 07:48:08;;;;;;;49.85;24.37;;;;;;;-3.43;80.13;101376.47;6689788;26;34792;-80
2021/12/23 07:51:11;;;;;;;48.70;23.75;;;;;;;-3.33;80.36;101371.69;6690633;26;33690;-80
2021/12/23 07:54:14;;;;;;;44.75;24.17;;;;;;;-3.22;79.59;101365.06;6691341;26;33854;-80
2021/12/23 07:57:17;;;;;;;44.67;23.65;;;;;;;-3.12;79.56;101352.34;6699466;26;34432;-80
2021/12/23 08:00:20;;;;;;;43.30;22.98;;;;;;;-3.03;79.69;101353.72;6693836;26;34402;-80
2021/12/23 08:03:23;;;;;;;48.28;22.42;;;;;;;-2.91;79.90;101345.28;6691701;26;34752;-80
2021/12/23 08:06:27;;;;;;;38.15;19.55;;;;;;;-2.77;78.70;101336.75;6692760;26;34168;-80
2021/12/23 08:09:30;;;;;;;37.65;19.23;;;;;;;-2.70;78.04;101338.19;6693837;26;34058;-80
2021/12/23 08:12:33;;;;;;;31.85;16.17;;;;;;;-2.69;76.89;101333.75;6701973;26;34080;-80
2021/12/23 08:15:36;;;;;;;29.27;16.30;;;;;;;-2.72;74.35;101329.50;6692570;26;34324;-80
2021/12/23 08:18:38;;;;;;;35.97;15.55;;;;;;;-2.65;74.08;101330.94;6703734;26;34421;-80
2021/12/23 08:21:43;;;;;;;28.77;15.23;;;;;;;-2.62;73.75;101330.78;6695153;26;33656;-80
2021/12/23 08:24:45;;;;;;;31.52;16.20;;;;;;;-2.62;73.07;101322.03;6689760;26;34731;-79
2021/12/23 08:27:48;;;;;;;29.02;15.57;;;;;;;-2.61;73.62;101326.38;6691195;26;34212;-80
2021/12/23 08:30:51;;;;;;;29.55;15.80;;;;;;;-2.42;72.37;101324.59;6691915;26;33769;-80
2021/12/23 08:33:54;;;;;;;28.33;15.10;;;;;;;-2.29;71.20;101319.59;6692734;26;32813;-83
2021/12/23 08:36:57;;;;;;;28.65;15.63;;;;;;;-2.24;70.99;101314.97;6691944;26;34170;-84
2021/12/23 08:40:00;;;;;;;33.97;15.95;;;;;;;-2.28;72.12;101313.41;6692349;26;33837;-84
2021/12/23 08:43:03;;;;;;;24.52;13.32;;;;;;;-2.25;71.05;101322.94;6691534;26;33555;-84
2021/12/23 08:46:06;;;;;;;28.17;14.57;;;;;;;-2.10;69.18;101323.06;6692007;26;34267;-80
2021/12/23 08:49:09;;;;;;;28.05;14.25;;;;;;;-2.05;69.57;101320.19;6691582;26;34000;-80
2021/12/23 08:52:13;;;;;;;28.85;13.90;;;;;;;-2.00;69.88;101320.00;6690600;26;33817;-79
2021/12/23 08:55:16;;;;;;;30.50;14.25;;;;;;;-1.97;68.29;101320.69;6696376;26;34148;-80
2021/12/23 08:58:19;;;;;;;33.45;16.48;;;;;;;-1.94;69.85;101317.91;6694459;26;33535;-80
2021/12/23 09:01:23;;;;;;;26.23;13.93;;;;;;;-1.73;68.48;101323.06;6694913;26;34195;-80
2021/12/23 09:04:26;;;;;;;27.15;13.80;;;;;;;-1.90;67.72;101323.88;6695593;26;33592;-80
2021/12/23 09:07:29;;;;;;;29.63;13.93;;;;;;;-1.86;67.39;101317.53;6691225;26;34100;-80
2021/12/23 09:10:33;;;;;;;24.08;13.35;;;;;;;-2.03;66.99;101317.50;6691384;26;34647;-80
2021/12/23 09:13:36;;;;;;;28.45;14.07;;;;;;;-1.86;66.78;101313.12;6692330;26;34380;-80
2021/12/23 09:16:39;;;;;;;28.83;13.62;;;;;;;-1.62;66.72;101303.12;6690859;26;33868;-80
2021/12/23 09:19:42;;;;;;;26.85;14.25;;;;;;;-1.41;65.57;101289.75;6691688;26;33933;-80
2021/12/23 09:22:46;;;;;;;26.12;13.68;;;;;;;-1.30;64.23;101276.84;6692423;26;32662;-80
2021/12/23 09:25:51;;;;;;;26.37;13.65;;;;;;;-1.03;63.60;101279.84;6690878;26;34614;-80
2021/12/23 09:35:24;;;;;;;25.17;13.18;;;;;;;-0.80;60.73;101262.75;6705580;26;34647;-81
2021/12/23 09:38:27;;;;;;;23.30;12.63;;;;;;;-1.04;61.97;101253.50;6708373;26;35377;-80
2021/12/23 09:41:32;;;;;;;25.37;12.82;;;;;;;-0.93;60.46;101256.44;6692189;26;34132;-80
2021/12/23 09:44:34;;;;;;;25.98;12.48;;;;;;;-0.73;60.15;101250.91;6697088;26;34474;-80
2021/12/23 09:47:41;;;;;;;19.65;11.70;;;;;;;-0.66;58.66;101242.66;6700034;26;34182;-80
2021/12/23 09:50:44;;;;;;;18.42;9.63;;;;;;;-0.59;59.20;101236.91;6685584;26;32482;-80
2021/12/23 09:53:55;;;;;;;17.62;9.18;;;;;;;-0.51;55.67;101234.69;6686755;26;33665;-80
2021/12/23 09:56:59;;;;;;;18.33;9.82;;;;;;;-0.57;55.63;101228.91;6698844;26;35987;-80
2021/12/23 10:00:05;;;;;;;21.30;10.60;;;;;;;-0.52;55.47;101225.06;6691658;26;34027;-80
2021/12/23 10:03:20;;;;;;;21.92;10.23;;;;;;;-0.38;55.12;101229.59;6692051;26;34828;-80
2021/12/23 10:06:25;;;;;;;20.00;10.43;;;;;;;-0.25;55.87;101227.94;6693364;26;34087;-79
2021/12/23 10:10:00;;;;;;;19.83;10.48;;;;;;;-0.51;55.09;101217.97;6701369;26;34618;-80
2021/12/23 10:39:22;;;;;;;19.65;10.57;;;;;;;0.36;55.61;101161.75;6691735;26;33660;-81
2021/12/23 10:42:26;;;;;;;22.73;10.85;;;;;;;0.53;53.84;101164.22;6693850;26;34894;-84
2021/12/23 10:45:41;;;;;;;18.37;10.52;;;;;;;0.52;53.75;101151.91;6691957;26;34216;-81
2021/12/23 10:49:47;;;;;;;17.30;9.48;;;;;;;0.44;54.20;101146.25;6692233;26;33817;-81
2021/12/23 10:52:29;;;;;;;18.98;9.70;;;;;;;0.54;52.75;101139.44;6682970;26;33763;-81
2021/12/23 10:59:09;;;;;;;20.17;10.52;;;;;;;0.47;53.72;101121.34;6696708;26;33893;-81
2021/12/23 11:02:25;;;;;;;17.98;10.02;;;;;;;0.76;52.98;101101.84;6696212;26;34093;-81
2021/12/23 11:05:34;;;;;;;18.17;9.52;;;;;;;0.72;54.21;101107.44;6695434;26;34347;-81
2021/12/23 11:42:02;;;;;;;17.87;9.55;;;;;;;1.03;51.07;101022.34;6702259;26;34404;-80
2021/12/23 11:45:06;;;;;;;15.52;9.35;;;;;;;1.20;50.85;101017.72;6693746;26;34082;-81
2021/12/23 11:48:09;;;;;;;21.52;10.73;;;;;;;1.17;51.33;101007.31;6691743;26;33965;-80
2021/12/23 11:51:19;;;;;;;18.75;9.85;;;;;;;1.04;51.01;101002.81;6691714;26;34631;-85
2021/12/23 11:54:24;;;;;;;19.48;10.45;;;;;;;1.12;50.75;101000.53;6702942;26;34812;-85
2021/12/23 11:57:35;;;;;;;16.33;9.68;;;;;;;1.12;50.58;100999.69;6693610;26;34554;-81
2021/12/23 12:00:42;;;;;;;21.00;9.05;;;;;;;1.06;50.69;100989.47;6692340;26;33481;-80
2021/12/23 12:03:58;;;;;;;18.10;9.93;;;;;;;0.96;50.83;100991.03;6691257;26;33849;-79
2021/12/23 12:07:00;;;;;;;18.60;9.90;;;;;;;1.06;51.39;100977.06;6697531;26;34611;-79
2021/12/23 12:10:09;;;;;;;19.27;9.35;;;;;;;1.00;52.11;100964.22;6694523;26;34154;-79
2021/12/23 12:13:16;;;;;;;13.57;7.65;;;;;;;1.06;51.83;100963.81;6692922;26;34192;-79
2021/12/23 12:16:29;;;;;;;14.50;7.30;;;;;;;1.16;50.38;100972.00;6692592;26;33902;-80
2021/12/23 12:19:57;;;;;;;10.45;6.65;;;;;;;1.08;50.08;100966.34;6693074;26;34541;-80
2021/12/23 12:23:11;;;;;;;10.80;6.50;;;;;;;0.93;51.07;100962.91;6697607;26;34103;-80
2021/12/23 12:26:25;;;;;;;11.85;6.57;;;;;;;0.97;50.32;100961.78;6711872;26;35247;-80
2021/12/23 12:29:38;;;;;;;11.25;6.85;;;;;;;0.97;50.54;100956.47;6708738;26;35430;-80
2021/12/23 12:32:40;;;;;;;12.07;7.37;;;;;;;0.93;51.01;100947.00;6705320;26;35447;-80
2021/12/23 12:36:00;;;;;;;10.10;6.55;;;;;;;0.92;50.82;100936.53;6705754;26;35398;-80
2021/12/23 12:39:02;;;;;;;12.50;7.00;;;;;;;0.76;50.96;100936.66;6705584;26;34691;-83
2021/12/23 12:42:11;;;;;;;12.27;6.90;;;;;;;0.79;51.17;100921.44;6705452;26;34884;-83
2021/12/23 12:45:24;;;;;;;14.35;7.47;;;;;;;0.84;50.36;100924.59;6704763;26;34061;-80
2021/12/23 12:48:56;;;;;;;12.37;7.30;;;;;;;0.53;51.25;100919.66;6705178;26;34536;-80
2021/12/23 12:52:17;;;;;;;13.52;7.30;;;;;;;0.66;51.54;100926.69;6703755;26;34234;-80
2021/12/23 12:55:24;;;;;;;9.77;6.47;;;;;;;0.51;50.19;100918.91;6699013;26;34383;-80
2021/12/23 12:58:38;;;;;;;10.93;6.70;;;;;;;0.31;50.79;100914.87;6704112;26;34400;-80
2021/12/23 13:01:47;;;;;;;11.90;6.55;;;;;;;0.32;51.20;100911.28;6705298;26;33773;-79
2021/12/23 13:04:58;;;;;;;10.60;7.03;;;;;;;0.47;50.31;100914.72;6701565;26;34556;-80
2021/12/23 13:08:18;;;;;;;10.77;6.50;;;;;;;0.35;50.25;100919.03;6696945;26;34169;-80
2021/12/23 13:11:23;;;;;;;13.45;6.90;;;;;;;0.30;51.03;100895.50;6695534;26;33890;-80
2021/12/23 13:14:58;;;;;;;11.65;7.00;;;;;;;0.37;51.25;100888.84;6696910;26;32842;-80
2021/12/23 13:18:14;;;;;;;10.85;6.62;;;;;;;0.47;50.52;100880.28;6695347;26;34189;-84
2021/12/23 13:21:24;;;;;;;11.77;6.43;;;;;;;0.42;50.39;100870.03;6692832;26;33933;-80
2021/12/23 13:24:29;;;;;;;13.62;6.78;;;;;;;0.50;50.08;100870.38;6693127;26;34366;-81
2021/12/23 13:27:32;;;;;;;9.88;6.35;;;;;;;0.49;50.05;100865.16;6692917;26;33898;-81
2021/12/23 13:30:38;;;;;;;13.90;6.68;;;;;;;0.42;49.57;100865.56;6696720;26;34750;-80
2021/12/23 13:33:45;;;;;;;11.82;7.00;;;;;;;0.33;50.03;100867.97;6704198;26;33949;-80
2021/12/23 13:36:50;;;;;;;13.05;6.82;;;;;;;0.44;49.31;100857.53;6704502;26;34527;-80
2021/12/23 13:39:53;;;;;;;14.45;7.70;;;;;;;0.26;49.90;100854.25;6693407;26;33967;-80
2021/12/23 13:42:56;;;;;;;12.13;7.10;;;;;;;0.25;50.57;100847.28;6692227;26;35145;-80
2021/12/23 13:46:07;;;;;;;13.07;6.65;;;;;;;0.24;49.95;100845.59;6695651;26;34693;-80
2021/12/23 13:49:11;;;;;;;12.20;6.65;;;;;;;0.19;50.20;100834.44;6692476;26;33616;-80
2021/12/23 13:52:29;;;;;;;10.23;6.68;;;;;;;0.12;50.14;100834.00;6699633;26;34431;-80
2021/12/23 13:55:32;;;;;;;14.02;7.07;;;;;;;0.30;50.56;100823.16;6691503;26;33869;-80
2021/12/23 13:58:35;;;;;;;14.30;7.40;;;;;;;0.27;50.51;100820.72;6691207;26;35076;-80
2021/12/23 14:02:00;;;;;;;14.35;7.47;;;;;;;0.24;49.83;100835.00;6691627;26;34460;-80
2021/12/23 14:05:07;;;;;;;13.20;7.20;;;;;;;0.13;50.14;100832.19;6702079;26;33516;-80
2021/12/23 14:08:11;;;;;;;11.23;6.80;;;;;;;0.11;50.92;100821.69;6694061;26;34128;-80
2021/12/23 14:11:14;;;;;;;11.30;7.20;;;;;;;-0.02;50.54;100823.44;6692624;26;34107;-80
2021/12/23 14:14:18;;;;;;;13.77;7.50;;;;;;;0.10;50.27;100824.44;6692711;26;34043;-80
2021/12/23 14:17:39;;;;;;;13.23;7.00;;;;;;;0.07;50.55;100827.31;6692544;26;34942;-80
2021/12/23 14:24:07;;;;;;;11.65;6.95;;;;;;;-0.06;50.96;100798.97;6693754;26;34469;-81
2021/12/23 14:27:10;;;;;;;11.70;7.18;;;;;;;-0.10;51.23;100796.63;6694337;26;33802;-81
2021/12/23 14:30:13;;;;;;;13.13;7.70;;;;;;;-0.15;52.17;100794.25;6694052;26;34523;-80
2021/12/23 14:33:24;;;;;;;13.77;7.65;;;;;;;-0.15;51.33;100786.31;6692707;26;34573;-80
2021/12/23 14:36:31;;;;;;;15.57;7.75;;;;;;;-0.14;51.01;100781.91;6693436;26;34656;-80
2021/12/23 14:39:38;;;;;;;12.50;8.00;;;;;;;-0.18;51.65;100777.75;6694643;26;34084;-80
2021/12/23 14:42:41;;;;;;;13.43;6.78;;;;;;;-0.24;51.75;100773.69;6693878;26;34046;-81
2021/12/23 14:45:54;;;;;;;14.45;7.35;;;;;;;-0.24;51.77;100769.25;6694898;26;34144;-80
2021/12/23 14:52:19;;;;;;;13.60;8.18;;;;;;;-0.25;52.59;100782.59;6694009;26;34640;-80
2021/12/23 14:55:23;;;;;;;13.60;7.60;;;;;;;-0.27;53.20;100787.97;6693777;26;34324;-80
2021/12/23 14:58:26;;;;;;;12.32;7.82;;;;;;;-0.30;52.18;100785.50;6693437;26;34325;-80
2021/12/23 15:01:29;;;;;;;15.32;8.80;;;;;;;-0.39;53.27;100783.47;6695304;26;33835;-80
2021/12/23 15:04:32;;;;;;;13.95;7.47;;;;;;;-0.41;53.66;100793.31;6696763;26;35587;-80
2021/12/23 15:07:55;;;;;;;13.05;7.50;;;;;;;-0.32;53.24;100790.06;6703938;26;34077;-80
2021/12/23 15:11:03;;;;;;;11.52;7.25;;;;;;;-0.36;52.75;100788.56;6710530;26;34179;-80
2021/12/23 15:14:14;;;;;;;14.98;8.18;;;;;;;-0.38;52.57;100742.84;6703663;26;34595;-80
2021/12/23 15:17:38;;;;;;;14.30;8.30;;;;;;;-0.41;52.53;100748.34;6698975;26;34815;-80
2021/12/23 15:20:50;;;;;;;13.80;7.53;;;;;;;-0.45;52.68;100757.41;6695898;26;34629;-80
2021/12/23 15:23:52;;;;;;;13.70;7.62;;;;;;;-0.54;53.21;100736.84;6695044;26;34024;-81
2021/12/23 15:27:02;;;;;;;15.68;8.20;;;;;;;-0.64;53.39;100730.41;6693305;26;34033;-81
2021/12/23 15:30:29;;;;;;;15.95;7.55;;;;;;;-0.55;53.45;100729.88;6693162;26;34415;-80
2021/12/23 15:33:32;;;;;;;15.32;8.55;;;;;;;-0.58;53.66;100720.31;6692945;26;33387;-80
2021/12/23 15:36:38;;;;;;;12.90;7.68;;;;;;;-0.50;52.70;100712.75;6693421;26;34106;-80
2021/12/23 15:39:41;;;;;;;15.27;8.25;;;;;;;-0.48;53.09;100707.34;6691540;26;33822;-80
2021/12/23 15:42:44;;;;;;;17.98;8.60;;;;;;;-0.55;53.15;100714.00;6692756;26;34600;-79
2021/12/23 15:45:48;;;;;;;18.95;9.55;;;;;;;-0.64;54.19;100703.97;6692807;26;34654;-80
2021/12/23 15:48:51;;;;;;;14.05;8.45;;;;;;;-0.61;54.05;100688.78;6699744;26;34467;-80
2021/12/23 15:51:56;;;;;;;17.92;9.50;;;;;;;-0.58;54.20;100685.94;6694629;26;34224;-80
2021/12/23 15:54:58;;;;;;;14.35;8.73;;;;;;;-0.55;54.56;100669.88;6693371;26;34743;-80
2021/12/23 15:58:02;;;;;;;17.33;9.18;;;;;;;-0.61;54.24;100664.16;6693214;26;34592;-80
